Time;durP1;ratioP1;P1;durP2;ratioP2;P2;SDS_P1;SDS_P2;PMS_P1;PMS_P2;Temp;Humidity;BMP_temperature;BMP_pressure;BME280_temperature;BME280_humidity;BME280_pressure;Samples;Min_cycle;Max_cycle;Signal;HPM_P1;HPM_P2
2021/04/09 00:01:56;;;;;;;11.37;6.27;;;6.60;52.90;;;;;;5052934;28;20044;-62
2021/04/09 00:04:22;;;;;;;9.97;6.03;;;6.60;51.50;;;;;;5052529;28;20025;-62
2021/04/09 00:06:49;;;;;;;11.87;6.73;;;6.50;52.50;;;;;;5052989;28;20029;-63
2021/04/09 00:09:15;;;;;;;10.03;6.13;;;6.50;51.10;;;;;;5052818;28;20458;-62
2021/04/09 00:11:41;;;;;;;11.77;6.63;;;6.50;51.40;;;;;;5052969;28;20040;-63
2021/04/09 00:14:10;;;;;;;11.10;6.97;;;6.50;53.00;;;;;;5052913;28;20037;-62
2021/04/09 00:16:36;;;;;;;11.80;6.73;;;6.40;52.50;;;;;;5052653;28;20064;-62
2021/04/09 00:19:04;;;;;;;11.50;7.27;;;6.30;53.00;;;;;;5052639;28;20076;-63
2021/04/09 00:21:30;;;;;;;10.23;7.13;;;6.20;54.10;;;;;;5051683;28;20028;-62
2021/04/09 00:23:56;;;;;;;14.17;8.10;;;6.20;53.70;;;;;;5052370;28;20029;-62
2021/04/09 00:26:21;;;;;;;14.70;8.83;;;6.20;52.30;;;;;;5052685;28;20036;-62
2021/04/09 00:28:47;;;;;;;14.30;9.10;;;6.20;53.70;;;;;;5052451;28;20480;-62
2021/04/09 00:31:13;;;;;;;15.50;9.07;;;6.10;52.80;;;;;;5052559;28;20036;-62
2021/04/09 00:33:38;;;;;;;15.67;9.40;;;6.00;54.80;;;;;;5052314;28;20492;-62
2021/04/09 00:36:04;;;;;;;13.43;8.23;;;6.00;54.60;;;;;;5052256;28;20362;-62
2021/04/09 00:38:30;;;;;;;12.90;8.37;;;6.00;54.40;;;;;;5052810;28;20104;-62
2021/04/09 00:40:55;;;;;;;14.10;7.90;;;6.00;53.20;;;;;;5052768;28;20025;-62
2021/04/09 00:43:21;;;;;;;12.47;8.10;;;5.90;53.50;;;;;;5052348;28;20525;-62
2021/04/09 00:45:47;;;;;;;12.80;7.73;;;5.90;54.20;;;;;;5052635;28;20025;-62
2021/04/09 00:48:13;;;;;;;14.73;8.17;;;5.90;53.50;;;;;;5050332;28;20081;-62
2021/04/09 00:50:39;;;;;;;12.57;7.33;;;5.90;54.20;;;;;;5052386;28;20435;-62
2021/04/09 00:53:08;;;;;;;14.57;8.20;;;5.80;54.60;;;;;;5052271;28;20033;-62
2021/04/09 00:55:34;;;;;;;13.47;8.17;;;5.80;55.20;;;;;;5052198;28;20550;-62
2021/04/09 00:58:02;;;;;;;15.50;8.57;;;5.80;55.20;;;;;;5051176;28;20468;-62
2021/04/09 01:00:28;;;;;;;17.57;8.70;;;5.80;55.50;;;;;;5049385;28;20025;-62
2021/04/09 01:02:54;;;;;;;19.37;9.07;;;5.80;55.90;;;;;;5048787;28;20029;-62
2021/04/09 01:05:20;;;;;;;14.27;8.13;;;5.80;56.60;;;;;;5050135;28;20381;-62
2021/04/09 01:07:47;;;;;;;16.27;7.47;;;5.90;56.30;;;;;;5051496;28;20032;-62
2021/04/09 01:10:15;;;;;;;12.57;7.03;;;5.90;55.80;;;;;;5051809;28;20144;-62
2021/04/09 01:12:40;;;;;;;13.17;6.97;;;5.90;55.50;;;;;;5051856;28;20017;-62
2021/04/09 01:15:08;;;;;;;11.50;6.50;;;5.90;57.30;;;;;;5052836;28;20477;-62
2021/04/09 01:17:40;;;;;;;16.37;6.63;;;5.90;55.60;;;;;;5056240;28;20455;-62
2021/04/09 01:20:15;;;;;;;9.77;5.90;;;5.90;55.70;;;;;;5055737;28;20466;-62
2021/04/09 01:23:05;;;;;;;9.20;5.50;;;5.90;55.40;;;;;;5056197;28;20473;-62
2021/04/09 01:25:31;;;;;;;11.13;4.93;;;5.90;57.10;;;;;;5056004;28;20056;-62
2021/04/09 01:28:11;;;;;;;7.63;4.77;;;5.90;57.30;;;;;;5055308;28;20446;-62
2021/04/09 01:30:55;;;;;;;6.87;4.77;;;5.90;55.90;;;;;;5055705;28;20039;-62
2021/04/09 01:33:30;;;;;;;10.60;4.77;;;5.90;55.70;;;;;;5055807;28;20021;-62
2021/04/09 01:36:04;;;;;;;5.67;3.77;;;6.00;55.30;;;;;;5055241;28;20074;-62
2021/04/09 01:38:33;;;;;;;5.93;4.07;;;6.00;54.70;;;;;;5055713;28;20163;-62
2021/04/09 01:41:04;;;;;;;7.50;3.47;;;6.00;54.60;;;;;;5055667;28;20017;-62
2021/04/09 01:43:30;;;;;;;7.30;4.17;;;6.00;54.70;;;;;;5055223;28;20074;-62
2021/04/09 01:45:59;;;;;;;6.23;3.43;;;6.00;54.90;;;;;;5055458;28;20032;-62
2021/04/09 01:48:26;;;;;;;4.73;3.20;;;6.00;54.70;;;;;;5055353;28;20477;-62
2021/04/09 01:50:53;;;;;;;7.97;3.33;;;6.00;54.40;;;;;;5054916;28;20045;-62
2021/04/09 01:53:22;;;;;;;4.73;3.23;;;6.00;54.50;;;;;;5054699;28;20052;-62
2021/04/09 01:55:50;;;;;;;7.03;3.40;;;6.10;54.00;;;;;;5055572;28;20033;-62
2021/04/09 01:58:18;;;;;;;8.33;3.23;;;6.10;53.20;;;;;;5055140;28;20100;-62
2021/04/09 02:00:44;;;;;;;5.63;2.60;;;6.10;53.50;;;;;;5049959;28;20021;-62
2021/04/09 02:03:10;;;;;;;4.33;2.47;;;6.10;53.20;;;;;;5055372;28;20051;-62
2021/04/09 02:05:37;;;;;;;4.03;2.30;;;6.20;53.10;;;;;;5055115;28;20093;-62
2021/04/09 02:08:04;;;;;;;7.77;2.73;;;6.20;53.50;;;;;;5055335;28;20033;-62
2021/04/09 02:10:30;;;;;;;5.10;2.63;;;6.10;53.00;;;;;;5055120;28;20021;-62
2021/04/09 02:12:56;;;;;;;4.43;2.47;;;6.20;52.30;;;;;;5055573;28;20041;-62
2021/04/09 02:15:25;;;;;;;6.47;2.23;;;6.20;52.30;;;;;;5054786;28;20066;-62
2021/04/09 02:17:52;;;;;;;6.17;2.30;;;6.20;52.50;;;;;;5055055;28;20425;-62
2021/04/09 02:20:21;;;;;;;4.23;2.47;;;6.20;52.10;;;;;;5054332;28;20033;-62
2021/04/09 02:22:48;;;;;;;4.13;2.30;;;6.20;51.70;;;;;;5054924;28;20028;-62
2021/04/09 02:25:16;;;;;;;5.80;2.93;;;6.20;51.90;;;;;;5055114;28;20135;-62
2021/04/09 02:27:46;;;;;;;5.00;2.73;;;6.20;52.10;;;;;;5054562;28;20025;-62
2021/04/09 02:30:15;;;;;;;3.67;2.50;;;6.20;52.40;;;;;;5054077;28;20110;-62
2021/04/09 02:32:41;;;;;;;3.30;2.40;;;6.20;52.50;;;;;;5054474;28;20466;-62
2021/04/09 02:35:08;;;;;;;7.67;2.63;;;6.20;52.90;;;;;;5054469;28;20039;-62
2021/04/09 02:37:36;;;;;;;4.17;2.77;;;6.20;52.80;;;;;;5054525;28;20021;-62
2021/04/09 02:40:07;;;;;;;5.40;2.43;;;6.20;52.70;;;;;;5054523;28;20033;-62
2021/04/09 02:42:34;;;;;;;6.20;2.57;;;6.20;52.40;;;;;;5054908;28;20024;-62
2021/04/09 02:45:00;;;;;;;4.23;2.47;;;6.10;54.70;;;;;;5054681;28;20107;-62
2021/04/09 02:47:29;;;;;;;8.90;3.20;;;6.10;53.20;;;;;;5053418;28;20082;-62
2021/04/09 02:50:18;;;;;;;5.23;3.00;;;6.10;53.10;;;;;;5048792;28;20512;-62
2021/04/09 02:52:56;;;;;;;7.87;3.90;;;6.10;53.10;;;;;;5054253;28;20095;-62
2021/04/09 02:55:25;;;;;;;6.77;3.67;;;6.00;53.80;;;;;;5054220;28;20037;-62
2021/04/09 02:57:52;;;;;;;6.67;3.23;;;6.00;55.00;;;;;;5054115;28;20531;-62
2021/04/09 03:00:18;;;;;;;6.00;3.63;;;5.90;55.80;;;;;;5054296;28;20298;-62
2021/04/09 03:02:47;;;;;;;6.07;3.40;;;5.80;55.50;;;;;;5053987;28;20546;-62
2021/04/09 03:05:14;;;;;;;9.30;4.20;;;5.70;55.70;;;;;;5053485;28;20029;-62
2021/04/09 03:07:41;;;;;;;8.40;4.13;;;5.70;54.90;;;;;;5054127;28;20052;-62
2021/04/09 03:10:13;;;;;;;6.47;3.90;;;5.60;55.40;;;;;;5054087;28;20029;-62
2021/04/09 03:12:40;;;;;;;5.93;3.85;;;5.50;57.60;;;;;;5054077;28;20029;-62
2021/04/09 03:15:06;;;;;;;7.73;4.17;;;5.50;55.90;;;;;;5053793;28;20071;-62
2021/04/09 03:17:47;;;;;;;6.83;3.93;;;5.40;56.90;;;;;;5053742;28;20111;-62
2021/04/09 03:20:13;;;;;;;8.80;3.83;;;5.40;56.90;;;;;;5053746;28;20029;-62
2021/04/09 03:22:39;;;;;;;11.30;3.67;;;5.40;56.00;;;;;;5053929;28;20155;-63
2021/04/09 03:25:05;;;;;;;7.10;3.87;;;5.40;56.00;;;;;;5053531;28;20056;-62
2021/04/09 03:27:31;;;;;;;5.50;3.30;;;5.40;55.90;;;;;;5053677;28;20025;-62
2021/04/09 03:29:56;;;;;;;6.57;3.60;;;5.30;55.90;;;;;;5053653;28;20488;-62
2021/04/09 03:32:22;;;;;;;7.03;3.70;;;5.30;56.90;;;;;;5053363;28;20067;-62
2021/04/09 03:34:48;;;;;;;6.73;3.80;;;5.20;57.70;;;;;;5053283;28;20037;-62
2021/04/09 03:37:13;;;;;;;5.07;2.93;;;5.30;56.80;;;;;;5053100;28;20027;-62
2021/04/09 03:39:39;;;;;;;6.10;2.87;;;5.30;56.10;;;;;;5053228;28;20032;-63
2021/04/09 03:42:06;;;;;;;20.57;6.67;;;5.30;56.40;;;;;;5053915;28;20021;-62
2021/04/09 03:44:31;;;;;;;10.30;4.20;;;5.30;55.20;;;;;;5053435;28;20032;-62
2021/04/09 03:46:57;;;;;;;7.20;3.27;;;5.40;56.10;;;;;;5053201;28;20021;-62
2021/04/09 03:49:23;;;;;;;5.70;2.93;;;5.40;55.30;;;;;;5053024;28;20485;-62
2021/04/09 03:51:50;;;;;;;10.17;2.33;;;5.50;55.30;;;;;;5053307;28;20025;-63
2021/04/09 03:54:16;;;;;;;6.30;2.47;;;5.50;55.00;;;;;;5053404;28;20359;-62
2021/04/09 03:56:42;;;;;;;7.70;2.50;;;5.60;54.80;;;;;;5053137;28;20478;-62
2021/04/09 03:59:08;;;;;;;7.03;3.23;;;5.60;54.60;;;;;;5052982;28;20065;-62
2021/04/09 04:01:34;;;;;;;6.73;3.33;;;5.70;54.10;;;;;;5053177;28;20027;-62
2021/04/09 04:03:59;;;;;;;5.93;3.63;;;5.70;54.60;;;;;;5052984;28;20103;-62
2021/04/09 04:06:25;;;;;;;5.63;3.40;;;5.60;54.50;;;;;;5053139;28;20017;-62
2021/04/09 04:08:51;;;;;;;5.93;3.77;;;5.60;54.80;;;;;;5053145;28;20047;-62
2021/04/09 04:11:17;;;;;;;9.40;3.87;;;5.50;55.00;;;;;;5052851;28;20027;-62
2021/04/09 04:13:42;;;;;;;8.57;3.60;;;5.40;54.80;;;;;;5052948;28;20367;-62
2021/04/09 04:16:08;;;;;;;6.60;4.00;;;5.40;55.50;;;;;;5053065;28;20102;-62
2021/04/09 04:18:34;;;;;;;7.23;3.67;;;5.20;55.70;;;;;;5052835;28;20021;-62
2021/04/09 04:21:00;;;;;;;7.43;3.83;;;5.10;56.30;;;;;;5052312;28;20500;-62
2021/04/09 04:23:26;;;;;;;7.40;4.13;;;5.10;56.60;;;;;;5052894;28;20021;-63
2021/04/09 04:25:52;;;;;;;6.43;3.50;;;5.00;57.50;;;;;;5052665;28;20419;-62
2021/04/09 04:28:18;;;;;;;5.53;3.47;;;4.90;58.20;;;;;;5052667;28;20025;-62
2021/04/09 04:30:50;;;;;;;7.10;3.73;;;4.90;57.00;;;;;;5052693;28;20021;-62
2021/04/09 04:33:20;;;;;;;6.07;3.70;;;4.90;56.40;;;;;;5052414;28;20484;-63
2021/04/09 04:35:46;;;;;;;8.80;3.80;;;4.90;56.90;;;;;;5052716;28;20041;-62
2021/04/09 04:38:12;;;;;;;6.07;3.47;;;4.80;57.70;;;;;;5052616;28;20492;-62
2021/04/09 04:40:38;;;;;;;8.43;3.67;;;4.80;57.70;;;;;;5052527;28;20029;-62
2021/04/09 04:43:04;;;;;;;12.57;3.43;;;4.80;58.00;;;;;;5052571;28;20428;-62
2021/04/09 04:45:30;;;;;;;6.47;2.83;;;4.70;57.80;;;;;;5052688;28;20104;-62
2021/04/09 04:47:56;;;;;;;9.10;3.40;;;4.70;58.30;;;;;;5052769;28;20029;-62
2021/04/09 04:50:22;;;;;;;9.87;3.50;;;4.70;58.60;;;;;;5049043;28;20106;-62
2021/04/09 04:52:48;;;;;;;6.77;3.30;;;4.70;58.90;;;;;;5056515;28;20080;-63
2021/04/09 04:55:14;;;;;;;8.30;3.67;;;4.70;58.90;;;;;;5057028;28;20073;-62
2021/04/09 04:57:39;;;;;;;10.00;3.70;;;4.60;58.50;;;;;;5056680;28;20064;-62
2021/04/09 05:00:06;;;;;;;12.10;3.40;;;4.70;58.80;;;;;;5056503;28;20104;-62
2021/04/09 05:02:32;;;;;;;11.50;4.73;;;4.60;59.10;;;;;;5056447;28;20024;-62
2021/04/09 05:04:58;;;;;;;10.30;3.77;;;4.60;60.00;;;;;;5056852;28;20419;-62
2021/04/09 05:07:23;;;;;;;18.40;4.00;;;4.60;59.00;;;;;;5056344;28;20578;-63
2021/04/09 05:09:49;;;;;;;12.97;3.77;;;4.60;58.90;;;;;;5056510;28;20040;-62
2021/04/09 05:12:15;;;;;;;13.73;4.13;;;4.60;58.70;;;;;;5056530;28;20059;-62
2021/04/09 05:14:40;;;;;;;22.17;3.83;;;4.60;59.10;;;;;;5056366;28;20385;-62
2021/04/09 05:17:06;;;;;;;26.00;3.60;;;4.60;59.80;;;;;;5055962;28;20029;-62
2021/04/09 05:19:32;;;;;;;32.67;4.43;;;4.70;59.00;;;;;;5056046;28;20589;-62
2021/04/09 05:21:57;;;;;;;12.77;3.80;;;4.70;58.80;;;;;;5056151;28;20090;-63
2021/04/09 05:24:23;;;;;;;13.77;3.70;;;4.70;59.70;;;;;;5056220;28;20025;-61
2021/04/09 05:26:49;;;;;;;12.60;4.00;;;4.70;59.40;;;;;;5056447;28;20154;-62
2021/04/09 05:29:14;;;;;;;11.87;3.70;;;4.70;60.10;;;;;;5056007;28;20029;-61
2021/04/09 05:31:40;;;;;;;10.77;3.63;;;4.70;59.80;;;;;;5056219;28;20481;-62
2021/04/09 05:34:06;;;;;;;14.40;5.37;;;4.80;60.00;;;;;;5056179;28;20033;-62
2021/04/09 05:36:31;;;;;;;11.90;3.73;;;4.90;60.20;;;;;;5056051;28;20104;-62
2021/04/09 05:38:57;;;;;;;13.60;3.97;;;4.90;59.40;;;;;;5055483;28;20020;-63
2021/04/09 05:41:23;;;;;;;15.83;3.73;;;5.00;59.80;;;;;;5052799;28;20484;-62
2021/04/09 05:43:49;;;;;;;22.10;4.23;;;5.00;59.30;;;;;;5055602;28;20492;-62
2021/04/09 05:46:15;;;;;;;19.50;4.87;;;5.10;58.90;;;;;;5052633;28;20448;-61
2021/04/09 05:48:41;;;;;;;20.13;4.83;;;5.10;58.50;;;;;;5055720;28;20105;-61
2021/04/09 05:51:06;;;;;;;19.97;5.93;;;5.20;58.60;;;;;;5054361;28;20124;-61
2021/04/09 05:53:33;;;;;;;27.63;5.47;;;5.30;58.70;;;;;;5054224;28;20017;-62
2021/04/09 05:55:59;;;;;;;30.50;6.40;;;5.30;59.40;;;;;;5037615;28;20028;-62
2021/04/09 05:58:24;;;;;;;28.00;5.80;;;5.30;59.80;;;;;;5050343;28;20028;-62
2021/04/09 06:00:50;;;;;;;30.83;5.50;;;5.40;59.80;;;;;;5053898;28;20040;-61
2021/04/09 06:03:16;;;;;;;20.63;5.30;;;5.40;61.90;;;;;;5053177;28;20083;-62
2021/04/09 06:05:42;;;;;;;22.93;5.47;;;5.40;61.70;;;;;;5055248;28;20067;-62
2021/04/09 06:08:10;;;;;;;15.10;5.20;;;5.40;61.20;;;;;;5055413;28;20103;-62
2021/04/09 06:10:37;;;;;;;16.03;4.97;;;5.50;61.70;;;;;;5053523;28;20053;-62
2021/04/09 06:13:03;;;;;;;18.40;5.23;;;5.50;60.40;;;;;;5049640;28;20017;-62
2021/04/09 06:15:29;;;;;;;27.47;5.23;;;5.60;61.20;;;;;;5053718;28;20047;-62
2021/04/09 06:17:56;;;;;;;14.40;5.00;;;5.70;61.80;;;;;;5053887;28;20420;-62
2021/04/09 06:20:21;;;;;;;20.70;5.30;;;5.70;61.40;;;;;;5051936;28;20063;-62
2021/04/09 06:22:47;;;;;;;10.37;4.80;;;5.80;62.20;;;;;;5052188;28;20029;-62
2021/04/09 06:25:14;;;;;;;14.73;5.50;;;5.80;62.90;;;;;;5052536;28;20033;-63
2021/04/09 06:27:40;;;;;;;16.40;5.37;;;5.90;62.60;;;;;;5054535;28;20025;-64
2021/04/09 06:30:06;;;;;;;14.67;5.07;;;6.00;62.30;;;;;;5053290;28;20033;-64
2021/04/09 06:32:32;;;;;;;10.93;4.63;;;6.00;62.50;;;;;;5051670;28;20036;-66
2021/04/09 06:34:58;;;;;;;18.17;5.07;;;6.10;62.00;;;;;;5051450;28;20040;-63
2021/04/09 06:37:24;;;;;;;12.80;5.30;;;6.20;61.50;;;;;;5050072;28;20032;-63
2021/04/09 06:39:49;;;;;;;18.50;4.97;;;6.30;61.60;;;;;;5052310;28;20366;-63
2021/04/09 06:42:18;;;;;;;22.90;5.20;;;6.40;61.20;;;;;;5053497;28;20025;-63
2021/04/09 06:44:48;;;;;;;20.67;4.83;;;6.40;61.50;;;;;;5054540;28;20021;-63
2021/04/09 06:47:14;;;;;;;10.07;4.47;;;6.50;61.00;;;;;;5055021;28;20032;-62
2021/04/09 06:49:42;;;;;;;16.57;5.20;;;6.60;61.70;;;;;;5054841;28;20049;-63
2021/04/09 06:52:14;;;;;;;16.03;4.60;;;6.70;62.30;;;;;;5054668;28;20065;-63
2021/04/09 06:54:43;;;;;;;17.60;3.90;;;6.80;62.70;;;;;;5054994;28;20029;-63
2021/04/09 06:57:13;;;;;;;11.57;4.47;;;6.90;62.20;;;;;;5054767;28;20248;-63
2021/04/09 06:59:46;;;;;;;7.83;3.47;;;6.90;61.00;;;;;;5054569;28;20029;-63
2021/04/09 07:02:17;;;;;;;4.53;3.13;;;7.00;59.80;;;;;;5054806;28;20021;-63
2021/04/09 07:04:47;;;;;;;11.00;3.67;;;7.10;59.30;;;;;;5054610;28;20083;-63
2021/04/09 07:07:17;;;;;;;10.63;3.40;;;7.20;59.10;;;;;;5054232;28;20033;-63
2021/04/09 07:09:44;;;;;;;5.50;3.30;;;7.30;58.50;;;;;;5054525;28;20024;-63
2021/04/09 07:12:22;;;;;;;10.83;3.83;;;7.30;57.80;;;;;;5054354;28;20031;-63
2021/04/09 07:14:48;;;;;;;9.00;3.50;;;7.40;57.40;;;;;;5054388;28;20067;-63
2021/04/09 07:17:35;;;;;;;6.43;2.73;;;7.50;57.10;;;;;;5054218;28;20016;-63
2021/04/09 07:20:22;;;;;;;11.13;3.33;;;7.60;56.30;;;;;;5053825;28;20021;-63
2021/04/09 07:22:54;;;;;;;10.33;3.20;;;7.60;56.10;;;;;;5053946;28;20056;-63
2021/04/09 07:25:26;;;;;;;8.33;3.20;;;7.70;55.60;;;;;;5053989;28;20525;-63
2021/04/09 07:28:18;;;;;;;8.77;3.00;;;7.80;55.60;;;;;;5054137;28;20076;-64
2021/04/09 07:30:54;;;;;;;12.47;3.13;;;7.80;55.30;;;;;;5054016;28;20029;-64
2021/04/09 07:33:22;;;;;;;9.97;3.27;;;7.90;55.20;;;;;;5054011;28;20397;-62
2021/04/09 07:35:55;;;;;;;12.37;2.97;;;8.00;55.50;;;;;;5053903;28;20055;-63
2021/04/09 07:38:33;;;;;;;8.17;3.27;;;8.00;55.30;;;;;;5053801;28;20104;-63
2021/04/09 07:40:58;;;;;;;8.00;2.90;;;8.10;54.70;;;;;;5053931;28;20032;-63
2021/04/09 07:43:27;;;;;;;6.53;2.57;;;8.10;54.30;;;;;;5054087;28;20017;-64
2021/04/09 07:45:56;;;;;;;7.40;2.97;;;8.20;53.70;;;;;;5053824;28;20052;-63
2021/04/09 07:48:29;;;;;;;8.40;3.27;;;8.20;53.50;;;;;;5053830;28;20497;-63
2021/04/09 07:50:56;;;;;;;8.17;2.97;;;8.30;53.90;;;;;;5053225;28;20080;-64
2021/04/09 07:53:48;;;;;;;6.30;2.67;;;8.40;54.00;;;;;;5053786;28;20043;-63
2021/04/09 07:56:18;;;;;;;5.77;2.90;;;8.40;54.10;;;;;;5051407;28;20102;-63
2021/04/09 07:58:45;;;;;;;5.43;2.73;;;8.40;53.50;;;;;;5053455;28;20049;-63
2021/04/09 08:01:24;;;;;;;8.13;3.23;;;8.50;53.20;;;;;;5053509;28;20041;-63
2021/04/09 08:03:50;;;;;;;8.93;3.37;;;8.50;53.20;;;;;;5052273;28;20028;-64
2021/04/09 08:06:18;;;;;;;8.67;3.50;;;8.50;52.80;;;;;;5052666;28;20035;-62
2021/04/09 08:08:47;;;;;;;9.10;3.60;;;8.50;53.30;;;;;;5050043;28;20029;-63
2021/04/09 08:11:22;;;;;;;9.93;3.40;;;8.60;53.50;;;;;;5049053;28;20504;-64
2021/04/09 08:13:59;;;;;;;8.93;2.90;;;8.60;53.70;;;;;;5048594;28;20033;-64
2021/04/09 08:16:33;;;;;;;5.23;3.33;;;8.60;53.40;;;;;;5050369;28;20025;-63
2021/04/09 08:19:13;;;;;;;8.77;3.60;;;8.60;53.50;;;;;;5045404;28;20512;-63
2021/04/09 08:21:41;;;;;;;7.73;3.17;;;8.60;53.20;;;;;;5050315;28;20116;-63
2021/04/09 08:24:09;;;;;;;8.40;2.87;;;8.60;53.20;;;;;;5047253;28;20451;-64
2021/04/09 08:26:39;;;;;;;7.30;3.20;;;8.60;53.20;;;;;;5048626;28;20533;-64
2021/04/09 08:29:10;;;;;;;7.57;3.50;;;8.70;53.30;;;;;;5050934;28;20060;-63
2021/04/09 08:31:37;;;;;;;5.03;3.07;;;8.70;53.30;;;;;;5041403;28;20031;-64
2021/04/09 08:34:04;;;;;;;9.37;3.60;;;8.80;52.90;;;;;;5048599;28;20037;-64
2021/04/09 08:36:30;;;;;;;18.33;3.77;;;8.80;53.10;;;;;;5050629;28;20039;-63
2021/04/09 08:38:56;;;;;;;21.47;10.87;;;8.80;53.20;;;;;;5036018;28;20508;-64
2021/04/09 08:41:23;;;;;;;13.23;6.40;;;8.90;53.40;;;;;;5031670;28;20116;-64
2021/04/09 08:43:49;;;;;;;12.03;4.40;;;8.90;53.40;;;;;;5039229;28;20067;-67
2021/04/09 08:46:15;;;;;;;10.57;3.43;;;9.00;53.30;;;;;;5050812;28;20033;-63
2021/04/09 08:48:42;;;;;;;6.30;3.00;;;9.10;53.60;;;;;;5051063;28;20100;-62
2021/04/09 08:51:10;;;;;;;4.23;2.63;;;9.20;53.50;;;;;;5049017;28;20440;-62
2021/04/09 08:53:36;;;;;;;6.83;2.70;;;9.30;55.00;;;;;;5050532;28;20405;-63
2021/04/09 08:56:03;;;;;;;11.90;3.27;;;9.40;54.40;;;;;;5044071;28;20099;-63
2021/04/09 08:58:32;;;;;;;8.50;3.17;;;9.40;54.80;;;;;;5042497;28;20382;-64
2021/04/09 09:01:12;;;;;;;6.77;3.13;;;9.50;54.30;;;;;;5052505;28;20081;-62
2021/04/09 09:03:38;;;;;;;6.40;2.67;;;9.70;54.50;;;;;;5052546;28;20021;-67
2021/04/09 09:06:06;;;;;;;8.77;2.90;;;9.80;54.70;;;;;;5046194;28;20947;-67
2021/04/09 09:08:41;;;;;;;3.37;1.40;;;10.00;55.50;;;;;;5045492;28;20028;-67
2021/04/09 09:11:07;;;;;;;10.80;1.80;;;10.20;54.90;;;;;;5050348;28;20025;-65
2021/04/09 09:13:42;;;;;;;5.53;1.70;;;10.30;55.10;;;;;;5050569;28;20053;-67
2021/04/09 09:16:16;;;;;;;8.90;1.70;;;10.50;54.90;;;;;;5052074;28;20064;-65
2021/04/09 09:18:48;;;;;;;4.43;2.17;;;10.60;56.00;;;;;;5051280;28;20029;-64
2021/04/09 09:21:13;;;;;;;5.00;1.80;;;10.80;55.20;;;;;;5051784;28;20029;-64
2021/04/09 09:23:42;;;;;;;6.97;2.20;;;10.90;54.90;;;;;;5034398;28;20037;-64
2021/04/09 09:26:21;;;;;;;7.83;1.87;;;11.00;55.20;;;;;;5051823;28;20470;-63
2021/04/09 09:29:07;;;;;;;5.53;1.77;;;11.10;55.40;;;;;;5051972;28;20028;-64
2021/04/09 09:31:34;;;;;;;8.30;1.57;;;11.20;55.00;;;;;;5051810;28;20025;-64
2021/04/09 09:34:21;;;;;;;8.50;1.90;;;11.20;55.80;;;;;;5052209;28;20053;-67
2021/04/09 09:37:13;;;;;;;4.57;1.50;;;11.30;55.50;;;;;;5053914;28;20116;-67
2021/04/09 09:40:02;;;;;;;9.03;1.80;;;11.30;56.30;;;;;;5049156;28;20115;-63
2021/04/09 09:42:28;;;;;;;5.22;1.70;;;11.20;55.90;;;;;;5055832;28;20025;-66
2021/04/09 09:44:58;;;;;;;4.53;1.97;;;11.20;56.00;;;;;;5054659;28;20096;-68
2021/04/09 09:47:33;;;;;;;7.72;1.90;;;11.20;56.60;;;;;;5054107;28;20535;-66
2021/04/09 09:50:07;;;;;;;9.73;1.73;;;11.20;57.20;;;;;;5055843;28;20461;-65
2021/04/09 09:52:48;;;;;;;6.07;2.23;;;11.20;57.10;;;;;;5055852;28;20068;-65
2021/04/09 09:55:23;;;;;;;14.32;2.08;;;11.30;57.40;;;;;;5052834;28;20033;-65
2021/04/09 09:57:51;;;;;;;5.15;1.60;;;11.50;57.50;;;;;;5049972;28;20438;-66
2021/04/09 10:00:32;;;;;;;8.20;1.88;;;11.60;57.80;;;;;;5055460;28;20025;-64
2021/04/09 10:03:20;;;;;;;7.20;1.70;;;11.80;57.80;;;;;;5055477;28;20021;-64
2021/04/09 10:05:50;;;;;;;6.63;2.30;;;12.00;57.60;;;;;;5055337;28;20405;-66
2021/04/09 10:08:17;;;;;;;5.72;1.90;;;12.10;56.80;;;;;;5055547;28;20079;-65
2021/04/09 10:10:50;;;;;;;5.88;2.35;;;12.20;56.60;;;;;;5055212;28;20060;-65
2021/04/09 10:13:20;;;;;;;5.32;1.85;;;12.30;56.00;;;;;;5055195;28;20029;-66
2021/04/09 10:15:47;;;;;;;8.48;1.98;;;;;;;;;;5055382;28;20393;-64
2021/04/09 10:18:13;;;;;;;12.65;1.83;;;12.50;55.40;;;;;;5055270;28;20048;-64
2021/04/09 10:20:39;;;;;;;6.68;1.80;;;12.50;56.00;;;;;;5054024;28;20060;-64
2021/04/09 10:23:05;;;;;;;4.28;1.80;;;12.70;54.30;;;;;;5055065;28;20025;-65
2021/04/09 10:25:33;;;;;;;8.15;1.85;;;12.80;53.10;;;;;;5054881;28;20075;-66
2021/04/09 10:27:59;;;;;;;6.50;1.88;;;12.80;53.10;;;;;;5055239;28;20029;-65
2021/04/09 10:30:29;;;;;;;10.45;2.03;;;12.80;51.80;;;;;;5037357;28;20021;-64
2021/04/09 10:32:55;;;;;;;8.77;2.00;;;12.80;51.90;;;;;;5054439;28;20031;-67
2021/04/09 10:35:28;;;;;;;10.55;1.83;;;12.80;51.90;;;;;;5054598;28;20041;-67
2021/04/09 10:38:11;;;;;;;10.35;1.92;;;12.80;51.70;;;;;;5055320;28;20027;-66
2021/04/09 10:40:57;;;;;;;7.68;2.42;;;12.80;51.20;;;;;;5054910;28;20033;-68
2021/04/09 10:43:31;;;;;;;9.13;1.70;;;12.90;52.40;;;;;;5054939;28;20059;-66
2021/04/09 10:46:09;;;;;;;8.60;1.73;;;13.00;51.00;;;;;;5054843;28;20026;-68
2021/04/09 10:48:34;;;;;;;8.20;1.65;;;13.10;51.80;;;;;;5054396;28;20037;-68
2021/04/09 10:51:00;;;;;;;8.50;1.63;;;13.20;51.40;;;;;;5054763;28;20137;-65
2021/04/09 10:53:26;;;;;;;6.65;1.50;;;13.30;52.20;;;;;;5054722;28;20029;-68
2021/04/09 10:55:59;;;;;;;8.13;2.00;;;13.40;51.10;;;;;;5054586;28;20068;-65
2021/04/09 10:58:25;;;;;;;9.23;1.88;;;13.40;51.90;;;;;;5052923;28;20095;-65
2021/04/09 11:00:50;;;;;;;5.35;1.50;;;13.50;52.00;;;;;;5050758;28;20021;-66
2021/04/09 11:03:16;;;;;;;7.15;1.90;;;13.70;51.60;;;;;;5052292;28;20531;-67
2021/04/09 11:05:42;;;;;;;8.02;2.05;;;13.70;51.80;;;;;;5054796;28;20040;-65
2021/04/09 11:08:08;;;;;;;7.90;1.67;;;13.80;49.20;;;;;;5053175;28;20067;-65
2021/04/09 11:10:37;;;;;;;7.30;1.60;;;13.80;50.00;;;;;;5054479;28;20025;-67
2021/04/09 11:13:05;;;;;;;6.18;2.25;;;13.90;50.70;;;;;;5054588;28;20024;-67
2021/04/09 11:15:43;;;;;;;5.28;1.80;;;14.00;50.30;;;;;;5054559;28;20139;-67
2021/04/09 11:18:09;;;;;;;9.75;2.35;;;14.00;51.20;;;;;;5054534;28;20397;-67
2021/04/09 11:20:43;;;;;;;9.43;1.98;;;14.00;50.40;;;;;;5054226;28;20032;-64
2021/04/09 11:23:11;;;;;;;6.65;1.63;;;14.10;50.80;;;;;;5052937;28;20488;-67
2021/04/09 11:25:44;;;;;;;10.40;1.95;;;14.10;50.90;;;;;;5051524;28;20029;-68
2021/04/09 11:28:28;;;;;;;10.45;2.40;;;14.20;52.90;;;;;;5051573;28;20040;-65
2021/04/09 11:31:01;;;;;;;10.18;1.85;;;14.40;50.40;;;;;;5053548;28;20059;-66
2021/04/09 11:33:39;;;;;;;9.13;2.25;;;14.50;50.20;;;;;;5053819;28;20025;-67
2021/04/09 11:36:24;;;;;;;7.88;2.00;;;14.60;50.00;;;;;;5053723;28;20064;-64
2021/04/09 11:38:53;;;;;;;8.23;1.77;;;14.70;50.00;;;;;;5053555;28;20059;-67
2021/04/09 11:41:26;;;;;;;10.85;2.47;;;14.80;49.60;;;;;;5052249;28;20033;-64
2021/04/09 11:43:53;;;;;;;11.90;2.13;;;14.80;49.70;;;;;;5053704;28;20031;-64
2021/04/09 11:46:37;;;;;;;10.45;2.05;;;14.80;49.90;;;;;;5052025;28;20111;-65
2021/04/09 11:49:07;;;;;;;6.70;1.65;;;14.90;49.00;;;;;;5053459;28;20032;-64
2021/04/09 11:51:36;;;;;;;6.32;1.95;;;14.90;47.60;;;;;;5053325;28;20044;-63
2021/04/09 11:54:11;;;;;;;9.75;1.70;;;14.90;48.00;;;;;;5052850;28;20029;-64
2021/04/09 11:56:47;;;;;;;11.50;2.25;;;14.90;48.50;;;;;;5053607;28;20144;-65
2021/04/09 11:59:18;;;;;;;10.32;2.15;;;15.00;47.90;;;;;;5052742;28;20021;-65
2021/04/09 12:01:45;;;;;;;8.27;1.95;;;15.00;49.00;;;;;;5053364;28;20112;-69
2021/04/09 12:04:37;;;;;;;7.93;2.05;;;15.00;49.50;;;;;;5053450;28;20029;-67
2021/04/09 12:07:04;;;;;;;13.63;2.58;;;15.10;48.90;;;;;;5053248;28;20075;-64
2021/04/09 12:09:31;;;;;;;11.38;1.75;;;14.90;48.90;;;;;;5052863;28;20032;-66
2021/04/09 12:11:57;;;;;;;7.03;2.67;;;;;;;;;;5053082;28;20108;-64
2021/04/09 12:14:35;;;;;;;6.05;1.77;;;14.60;49.90;;;;;;5053153;28;20021;-64
2021/04/09 12:17:02;;;;;;;6.63;1.73;;;14.50;50.00;;;;;;5051298;28;20116;-63
2021/04/09 12:19:28;;;;;;;11.25;3.10;;;14.40;51.20;;;;;;5052955;28;20021;-63
2021/04/09 12:21:54;;;;;;;10.13;2.20;;;14.40;50.80;;;;;;5053273;28;20086;-64
2021/04/09 12:24:20;;;;;;;7.30;2.55;;;14.30;51.40;;;;;;5053099;28;20021;-64
2021/04/09 12:26:46;;;;;;;9.23;2.30;;;14.30;50.60;;;;;;5053145;28;20024;-64
2021/04/09 12:29:12;;;;;;;8.55;2.95;;;14.30;50.50;;;;;;5052799;28;20029;-64
2021/04/09 12:31:37;;;;;;;11.65;2.30;;;14.30;50.80;;;;;;5052213;28;20013;-64
2021/04/09 12:34:04;;;;;;;7.05;2.60;;;14.20;51.00;;;;;;5050406;28;20416;-64
2021/04/09 12:36:30;;;;;;;8.65;2.55;;;14.20;50.90;;;;;;5051966;28;20426;-64
2021/04/09 12:38:56;;;;;;;9.60;2.28;;;14.20;50.90;;;;;;5049861;28;20024;-63
2021/04/09 12:41:22;;;;;;;10.70;2.80;;;14.20;51.50;;;;;;5048154;28;20100;-64
2021/04/09 12:43:50;;;;;;;10.77;2.65;;;14.30;52.50;;;;;;5049343;28;20021;-64
2021/04/09 12:46:16;;;;;;;8.98;2.60;;;14.40;50.90;;;;;;5048184;28;20028;-64
2021/04/09 12:48:42;;;;;;;6.45;2.38;;;14.40;50.50;;;;;;5050651;28;20118;-65
2021/04/09 12:51:09;;;;;;;8.50;2.42;;;14.30;50.70;;;;;;5047352;28;20045;-64
2021/04/09 12:53:34;;;;;;;8.80;2.22;;;14.30;51.60;;;;;;5051861;28;20025;-64
2021/04/09 12:56:00;;;;;;;9.65;2.78;;;14.30;52.60;;;;;;5049801;28;20033;-64
2021/04/09 12:58:26;;;;;;;7.28;2.10;;;14.30;51.20;;;;;;5050008;28;20032;-64
2021/04/09 13:00:51;;;;;;;9.38;2.60;;;14.40;50.70;;;;;;5052116;28;20497;-64